createdAt,value
2023-05-08T00:01:30.040Z,20.27
2023-05-08T00:03:57.277Z,20.29
2023-05-08T00:06:24.635Z,20.29
2023-05-08T00:08:52.357Z,20.29
2023-05-08T00:11:19.245Z,20.27
2023-05-08T00:13:46.158Z,20.26
2023-05-08T00:16:13.289Z,20.21
2023-05-08T00:18:40.333Z,20.18
2023-05-08T00:21:07.433Z,20.15
2023-05-08T00:23:34.507Z,20.13
2023-05-08T00:26:01.535Z,20.08
2023-05-08T00:28:28.395Z,20.08
2023-05-08T00:30:55.227Z,20.07
2023-05-08T00:33:22.131Z,20.06
2023-05-08T00:35:49.021Z,20.07
2023-05-08T00:38:15.845Z,20.07
2023-05-08T00:40:43.416Z,20.09
2023-05-08T00:43:10.304Z,20.09
2023-05-08T00:45:40.028Z,20.09
2023-05-08T00:48:07.596Z,20.11
2023-05-08T00:50:35.282Z,20.11
2023-05-08T00:53:04.253Z,20.10
2023-05-08T00:55:32.875Z,20.09
2023-05-08T00:58:00.196Z,20.11
2023-05-08T01:00:27.367Z,20.11
2023-05-08T01:02:54.351Z,20.11
2023-05-08T01:05:21.503Z,20.11
2023-05-08T01:07:48.639Z,20.13
2023-05-08T01:10:16.346Z,20.13
2023-05-08T01:13:29.122Z,20.03
2023-05-08T01:16:09.741Z,20.06
2023-05-08T01:18:47.093Z,20.04
2023-05-08T01:21:43.572Z,20.00
2023-05-08T01:24:42.232Z,19.99
2023-05-08T01:28:05.622Z,19.93
2023-05-08T01:31:00.337Z,19.91
2023-05-08T01:33:35.782Z,19.90
2023-05-08T01:36:34.226Z,19.84
2023-05-08T01:39:21.370Z,19.83
2023-05-08T01:42:14.190Z,19.81
2023-05-08T01:45:07.434Z,19.85
2023-05-08T01:47:38.376Z,19.85
2023-05-08T01:50:15.344Z,19.82
2023-05-08T01:52:58.274Z,19.81
2023-05-08T01:55:32.012Z,19.85
2023-05-08T01:57:59.743Z,19.90
2023-05-08T02:00:28.499Z,19.91
2023-05-08T02:02:58.070Z,19.92
2023-05-08T02:05:27.546Z,19.92
2023-05-08T02:07:55.457Z,19.94
2023-05-08T02:10:25.668Z,19.95
2023-05-08T02:12:53.722Z,19.96
2023-05-08T02:15:22.418Z,19.94
2023-05-08T02:17:50.743Z,19.93
2023-05-08T02:20:20.148Z,19.90
2023-05-08T02:22:50.568Z,19.86
2023-05-08T02:25:18.246Z,19.88
2023-05-08T02:27:49.660Z,19.84
2023-05-08T02:30:18.455Z,19.88
2023-05-08T02:32:47.978Z,19.86
2023-05-08T02:35:19.902Z,19.85
2023-05-08T02:37:53.924Z,19.86
2023-05-08T02:40:22.847Z,19.90
2023-05-08T02:42:50.369Z,19.90
2023-05-08T02:45:17.404Z,19.92
2023-05-08T02:48:11.067Z,19.89
2023-05-08T02:51:21.074Z,19.83
2023-05-08T02:53:56.505Z,19.86
2023-05-08T02:56:49.903Z,19.81
2023-05-08T02:59:30.289Z,19.84
2023-05-08T03:02:08.465Z,19.88
2023-05-08T03:04:43.330Z,19.89
2023-05-08T03:07:11.125Z,19.92
2023-05-08T03:09:49.004Z,19.86
2023-05-08T03:12:22.283Z,19.83
2023-05-08T03:15:07.713Z,19.78
2023-05-08T03:17:39.049Z,19.79
2023-05-08T03:20:10.347Z,19.78
2023-05-08T03:22:38.726Z,19.79
2023-05-08T03:25:09.112Z,19.79
2023-05-08T03:27:38.292Z,19.80
2023-05-08T03:30:06.416Z,19.80
2023-05-08T03:32:37.105Z,19.80
2023-05-08T03:35:05.577Z,19.78
2023-05-08T03:37:32.711Z,19.80
2023-05-08T03:39:59.902Z,19.81
2023-05-08T03:42:27.380Z,19.79
2023-05-08T03:44:54.420Z,19.77
2023-05-08T03:47:24.148Z,19.74
2023-05-08T03:49:51.482Z,19.72
2023-05-08T03:52:18.617Z,19.71
2023-05-08T03:54:45.628Z,19.70
2023-05-08T03:57:13.126Z,19.71
2023-05-08T04:00:02.536Z,19.64
2023-05-08T04:02:57.646Z,19.63
2023-05-08T04:05:37.576Z,19.64
2023-05-08T04:08:40.750Z,19.59
2023-05-08T04:11:37.471Z,19.59
2023-05-08T04:14:08.317Z,19.65
2023-05-08T04:16:44.572Z,19.62
2023-05-08T04:19:23.612Z,19.60
2023-05-08T04:21:51.470Z,19.62
2023-05-08T04:24:20.946Z,19.59
2023-05-08T04:26:48.844Z,19.58
2023-05-08T04:29:17.753Z,19.58
2023-05-08T04:31:45.711Z,19.58
2023-05-08T04:34:13.126Z,19.59
2023-05-08T04:36:40.241Z,19.61
2023-05-08T04:39:07.933Z,19.63
2023-05-08T04:41:35.488Z,19.64
2023-05-08T04:44:05.395Z,19.64
2023-05-08T04:46:32.735Z,19.65
2023-05-08T04:48:59.685Z,19.68
2023-05-08T04:51:29.359Z,19.67
2023-05-08T04:53:56.232Z,19.70
2023-05-08T04:56:23.158Z,19.73
2023-05-08T04:58:51.035Z,19.74
2023-05-08T05:01:18.358Z,19.76
2023-05-08T05:03:45.677Z,19.78
2023-05-08T05:06:13.269Z,19.80
2023-05-08T05:08:40.142Z,19.83
2023-05-08T05:11:07.267Z,19.86
2023-05-08T05:13:34.100Z,19.91
2023-05-08T05:16:01.125Z,19.93
2023-05-08T05:18:28.425Z,19.97
2023-05-08T05:20:59.002Z,19.98
2023-05-08T05:23:26.158Z,20.04
2023-05-08T05:25:53.243Z,20.06
2023-05-08T05:28:20.262Z,20.08
2023-05-08T05:30:48.388Z,20.10
2023-05-08T05:33:15.331Z,20.14
2023-05-08T05:35:42.186Z,20.15
2023-05-08T05:38:09.060Z,20.16
2023-05-08T05:40:35.898Z,20.16
2023-05-08T05:43:02.807Z,20.16
2023-05-08T05:45:31.853Z,20.17
2023-05-08T05:48:00.488Z,20.19
2023-05-08T05:50:28.178Z,20.21
2023-05-08T05:52:56.601Z,20.22
2023-05-08T05:55:23.543Z,20.22
2023-05-08T05:57:51.287Z,20.25
2023-05-08T06:00:19.005Z,20.25
2023-05-08T06:02:50.148Z,20.26
2023-05-08T06:05:19.615Z,20.27
2023-05-08T06:07:46.578Z,20.28
2023-05-08T06:10:13.523Z,20.29
2023-05-08T06:12:40.576Z,20.29
2023-05-08T06:15:09.348Z,20.29
2023-05-08T06:17:36.503Z,20.28
2023-05-08T06:20:03.987Z,20.27
2023-05-08T06:22:30.853Z,20.30
2023-05-08T06:24:57.680Z,20.29
2023-05-08T06:27:25.157Z,20.29
2023-05-08T06:29:53.306Z,20.31
2023-05-08T06:32:21.115Z,20.32
2023-05-08T06:34:48.585Z,20.33
2023-05-08T06:37:15.521Z,20.35
2023-05-08T06:39:42.409Z,20.37
2023-05-08T06:42:09.430Z,20.40
2023-05-08T06:44:40.626Z,20.42
2023-05-08T06:47:08.253Z,20.44
2023-05-08T06:49:38.255Z,20.45
2023-05-08T06:52:05.147Z,20.40
2023-05-08T06:54:31.972Z,20.51
2023-05-08T06:56:58.800Z,20.54
2023-05-08T06:59:25.708Z,20.55
2023-05-08T07:01:52.790Z,20.59
2023-05-08T07:04:19.605Z,20.63
2023-05-08T07:06:46.546Z,20.67
2023-05-08T07:09:13.471Z,20.70
2023-05-08T07:11:40.319Z,20.73
2023-05-08T07:14:07.132Z,20.77
2023-05-08T07:16:34.490Z,20.82
2023-05-08T07:19:01.366Z,20.87
2023-05-08T07:21:29.362Z,20.89
2023-05-08T07:23:56.200Z,20.93
2023-05-08T07:26:23.119Z,20.96
2023-05-08T07:28:50.817Z,20.99
2023-05-08T07:31:17.697Z,21.03
2023-05-08T07:33:44.622Z,21.06
2023-05-08T07:36:11.933Z,21.11
2023-05-08T07:38:38.804Z,21.16
2023-05-08T07:41:05.934Z,21.23
2023-05-08T07:43:32.994Z,21.28
2023-05-08T07:46:00.502Z,21.34
2023-05-08T07:48:27.353Z,21.40
2023-05-08T07:50:54.168Z,21.47
2023-05-08T07:53:21.041Z,21.54
2023-05-08T07:55:47.871Z,21.62
2023-05-08T07:58:14.673Z,21.69
2023-05-08T08:00:41.474Z,21.77
2023-05-08T08:03:08.271Z,21.82
2023-05-08T08:05:35.284Z,21.89
2023-05-08T08:08:02.176Z,21.93
2023-05-08T08:10:29.220Z,21.96
2023-05-08T08:12:56.183Z,21.96
2023-05-08T08:15:23.020Z,21.94
2023-05-08T08:17:49.900Z,21.93
2023-05-08T08:20:16.920Z,21.92
2023-05-08T08:22:43.728Z,21.93
2023-05-08T08:25:11.154Z,21.93
2023-05-08T08:27:38.134Z,21.94
2023-05-08T08:30:16.241Z,21.96
2023-05-08T08:32:44.797Z,21.97
2023-05-08T08:35:12.027Z,21.97
2023-05-08T08:37:39.488Z,21.97
2023-05-08T08:40:07.478Z,21.95
2023-05-08T08:42:34.479Z,21.95
2023-05-08T08:45:01.613Z,21.95
2023-05-08T08:47:30.157Z,21.94
2023-05-08T08:50:03.096Z,21.92
2023-05-08T08:52:54.326Z,21.87
2023-05-08T08:55:23.341Z,21.91
2023-05-08T08:58:21.315Z,21.81
2023-05-08T09:00:49.757Z,21.90
2023-05-08T09:03:17.217Z,21.94
2023-05-08T09:05:45.386Z,21.94
2023-05-08T09:08:12.799Z,21.95
2023-05-08T09:10:39.704Z,21.96
2023-05-08T09:13:06.744Z,21.98
2023-05-08T09:15:34.083Z,21.99
2023-05-08T09:18:04.313Z,22.00
2023-05-08T09:20:31.449Z,22.05
2023-05-08T09:23:01.516Z,22.06
2023-05-08T09:25:45.814Z,22.07
2023-05-08T09:28:30.713Z,22.11
2023-05-08T09:30:59.696Z,22.21
2023-05-08T09:33:29.247Z,22.27
2023-05-08T09:35:57.332Z,22.33
2023-05-08T09:38:41.780Z,22.36
2023-05-08T09:41:15.255Z,22.46
2023-05-08T09:44:00.756Z,22.52
2023-05-08T09:46:27.762Z,22.69
2023-05-08T09:48:59.623Z,22.75
2023-05-08T09:51:29.439Z,22.85
2023-05-08T09:53:59.086Z,22.93
2023-05-08T09:56:38.839Z,22.94
2023-05-08T09:59:22.924Z,22.97
2023-05-08T10:01:49.937Z,23.06
2023-05-08T10:04:16.776Z,23.10
2023-05-08T10:06:43.886Z,23.13
2023-05-08T10:09:14.969Z,23.16
2023-05-08T10:11:54.513Z,23.18
2023-05-08T10:14:23.122Z,23.27
2023-05-08T10:16:53.755Z,23.30
2023-05-08T10:19:23.566Z,23.35
2023-05-08T10:21:53.591Z,23.37
2023-05-08T10:24:30.886Z,23.39
2023-05-08T10:27:17.824Z,23.38
2023-05-08T10:29:56.349Z,23.39
2023-05-08T10:32:24.471Z,23.43
2023-05-08T10:34:59.457Z,23.39
2023-05-08T10:37:30.137Z,23.40
2023-05-08T10:39:58.699Z,23.42
2023-05-08T10:42:26.363Z,23.42
2023-05-08T10:44:54.517Z,23.41
2023-05-08T10:48:11.260Z,23.33
2023-05-08T10:51:01.571Z,23.36
2023-05-08T10:53:51.334Z,23.33
2023-05-08T10:56:18.157Z,23.24
2023-05-08T10:58:44.937Z,23.32
2023-05-08T11:01:13.047Z,23.27
2023-05-08T11:03:46.296Z,23.20
2023-05-08T11:06:14.133Z,23.21
2023-05-08T11:08:51.117Z,23.14
2023-05-08T11:11:26.775Z,23.11
2023-05-08T11:14:14.943Z,23.03
2023-05-08T11:16:53.952Z,23.00
2023-05-08T11:19:23.081Z,22.99
2023-05-08T11:22:16.207Z,22.90
2023-05-08T11:24:49.106Z,22.92
2023-05-08T11:27:16.728Z,22.95
2023-05-08T11:29:44.903Z,22.96
2023-05-08T11:32:11.981Z,22.99
2023-05-08T11:34:41.880Z,23.00
2023-05-08T11:37:19.055Z,22.94
2023-05-08T11:39:46.884Z,23.07
2023-05-08T11:42:26.699Z,23.08
2023-05-08T11:45:13.874Z,23.13
2023-05-08T11:47:45.369Z,23.28
2023-05-08T11:50:13.763Z,23.41
2023-05-08T11:52:43.198Z,23.54
2023-05-08T11:55:12.031Z,23.69
2023-05-08T11:57:38.878Z,23.88
2023-05-08T12:00:11.564Z,23.98
2023-05-08T12:02:41.862Z,24.14
2023-05-08T12:05:09.859Z,24.18
2023-05-08T12:07:44.736Z,24.41
2023-05-08T12:10:12.311Z,24.60
2023-05-08T12:12:41.186Z,24.72
2023-05-08T12:15:12.180Z,24.85
2023-05-08T12:17:39.155Z,24.97
2023-05-08T12:20:18.276Z,25.03
2023-05-08T12:22:53.075Z,25.16
2023-05-08T12:25:20.451Z,25.32
2023-05-08T12:27:47.563Z,25.42
2023-05-08T12:30:16.502Z,25.52
2023-05-08T12:32:44.329Z,25.58
2023-05-08T12:35:13.169Z,25.63
2023-05-08T12:37:40.558Z,25.70
2023-05-08T12:40:24.602Z,25.70
2023-05-08T12:42:51.740Z,25.86
2023-05-08T12:45:28.128Z,25.94
2023-05-08T12:48:03.603Z,26.04
2023-05-08T12:50:41.984Z,26.15
2023-05-08T12:53:14.646Z,26.25
2023-05-08T12:55:55.081Z,26.26
2023-05-08T12:58:33.952Z,26.30
2023-05-08T13:01:13.223Z,26.32
2023-05-08T13:03:41.313Z,26.35
2023-05-08T13:06:21.126Z,26.28
2023-05-08T13:08:57.612Z,26.25
2023-05-08T13:11:32.963Z,26.17
2023-05-08T13:14:00.262Z,26.12
2023-05-08T13:16:27.284Z,26.01
2023-05-08T13:18:54.141Z,25.92
2023-05-08T13:21:20.997Z,25.78
2023-05-08T13:23:47.814Z,25.68
2023-05-08T13:26:14.597Z,25.60
2023-05-08T13:28:41.391Z,25.52
2023-05-08T13:31:08.166Z,25.43
2023-05-08T13:33:35.221Z,25.33
2023-05-08T13:36:02.173Z,25.23
2023-05-08T13:38:28.981Z,25.13
2023-05-08T13:40:56.051Z,25.02
2023-05-08T13:43:22.870Z,24.95
2023-05-08T13:45:49.690Z,24.88
2023-05-08T13:48:16.512Z,24.79
2023-05-08T13:50:43.308Z,24.73
2023-05-08T13:53:10.112Z,24.67
2023-05-08T13:55:37.449Z,24.62
2023-05-08T13:58:04.260Z,24.56
2023-05-08T14:00:31.094Z,24.51
2023-05-08T14:02:57.996Z,24.46
2023-05-08T14:05:24.858Z,24.42
2023-05-08T14:07:51.639Z,24.37
2023-05-08T14:10:18.493Z,24.35
2023-05-08T14:12:46.481Z,24.31
2023-05-08T14:15:13.542Z,24.26
2023-05-08T14:17:41.798Z,24.21
2023-05-08T14:20:11.586Z,24.16
2023-05-08T14:22:38.964Z,24.12
2023-05-08T14:25:06.892Z,24.10
2023-05-08T14:27:33.717Z,24.07
2023-05-08T14:30:00.506Z,24.04
2023-05-08T14:32:27.410Z,23.99
2023-05-08T14:34:54.196Z,23.95
2023-05-08T14:37:20.993Z,23.90
2023-05-08T14:39:47.842Z,23.84
2023-05-08T14:42:22.987Z,23.74
2023-05-08T14:44:51.240Z,23.66
2023-05-08T14:47:18.168Z,23.62
2023-05-08T14:49:44.988Z,23.55
2023-05-08T14:52:11.766Z,23.50
2023-05-08T14:54:38.707Z,23.45
2023-05-08T14:57:06.191Z,23.39
2023-05-08T14:59:33.043Z,23.32
2023-05-08T15:01:59.919Z,23.27
2023-05-08T15:04:26.899Z,23.21
2023-05-08T15:06:53.748Z,23.16
2023-05-08T15:09:20.524Z,23.11
2023-05-08T15:11:47.314Z,23.06
2023-05-08T15:14:14.135Z,23.03
2023-05-08T15:16:40.964Z,23.00
2023-05-08T15:19:09.386Z,22.97
2023-05-08T15:21:36.498Z,22.96
2023-05-08T15:24:03.399Z,22.93
2023-05-08T15:26:30.225Z,22.91
2023-05-08T15:28:57.041Z,22.89
2023-05-08T15:31:23.855Z,22.87
2023-05-08T15:33:50.880Z,22.87
2023-05-08T15:36:17.720Z,22.83
2023-05-08T15:38:44.580Z,22.83
2023-05-08T15:41:14.564Z,22.83
2023-05-08T15:46:11.232Z,22.82
2023-05-08T15:48:38.202Z,22.82
2023-05-08T15:51:05.059Z,22.82
2023-05-08T15:53:34.075Z,22.82
2023-05-08T15:56:00.977Z,22.82
2023-05-08T15:58:27.787Z,22.83
2023-05-08T16:00:54.882Z,22.85
2023-05-08T16:03:21.992Z,22.89
2023-05-08T16:05:49.442Z,22.89
2023-05-08T16:08:16.278Z,22.90
2023-05-08T16:10:43.136Z,22.94
2023-05-08T16:13:09.985Z,22.97
2023-05-08T16:15:36.860Z,22.99
2023-05-08T16:18:03.995Z,23.03
2023-05-08T16:20:32.099Z,23.05
2023-05-08T16:23:00.464Z,23.07
2023-05-08T16:25:27.321Z,23.10
2023-05-08T16:27:54.246Z,23.12
2023-05-08T16:30:21.083Z,23.15
2023-05-08T16:32:48.064Z,23.17
2023-05-08T16:35:15.450Z,23.17
2023-05-08T16:37:42.970Z,23.20
2023-05-08T16:40:11.346Z,23.20
2023-05-08T16:42:38.501Z,23.22
2023-05-08T16:45:06.387Z,23.21
2023-05-08T16:47:34.859Z,23.22
2023-05-08T16:50:01.895Z,23.25
2023-05-08T16:52:29.040Z,23.26
2023-05-08T16:54:55.944Z,23.25
2023-05-08T16:57:22.788Z,23.26
2023-05-08T16:59:49.643Z,23.28
2023-05-08T17:02:18.682Z,23.29
2023-05-08T17:04:47.067Z,23.27
2023-05-08T17:07:15.005Z,23.28
2023-05-08T17:09:42.361Z,23.27
2023-05-08T17:12:09.760Z,23.27
2023-05-08T17:14:39.117Z,23.30
2023-05-08T17:17:06.345Z,23.36
2023-05-08T17:19:33.269Z,23.46
2023-05-08T17:22:00.233Z,23.63
2023-05-08T17:24:27.460Z,23.87
2023-05-08T17:26:54.295Z,24.22
2023-05-08T17:29:21.140Z,24.42
2023-05-08T17:31:48.104Z,24.52
2023-05-08T17:34:15.229Z,24.64
2023-05-08T17:36:42.262Z,24.76
2023-05-08T17:39:09.168Z,24.84
2023-05-08T17:41:36.003Z,24.80
2023-05-08T17:44:04.106Z,24.74
2023-05-08T17:46:30.923Z,24.65
2023-05-08T17:48:57.722Z,24.55
2023-05-08T17:51:25.680Z,24.44
2023-05-08T17:53:53.074Z,24.35
2023-05-08T17:56:23.042Z,24.23
2023-05-08T17:58:51.780Z,23.97
2023-05-08T18:01:19.792Z,23.97
2023-05-08T18:03:48.272Z,23.85
2023-05-08T18:06:18.685Z,23.69
2023-05-08T18:08:46.688Z,23.60
2023-05-08T18:11:23.051Z,23.46
2023-05-08T18:13:52.272Z,23.39
2023-05-08T18:16:21.479Z,23.30
2023-05-08T18:18:49.449Z,23.25
2023-05-08T18:21:16.455Z,23.20
2023-05-08T18:23:43.339Z,23.13
2023-05-08T18:26:14.759Z,23.05
2023-05-08T18:28:41.924Z,23.00
2023-05-08T18:31:08.780Z,22.93
2023-05-08T18:33:36.928Z,22.87
2023-05-08T18:36:07.413Z,22.78
2023-05-08T18:38:34.961Z,22.70
2023-05-08T18:41:06.043Z,22.61
2023-05-08T18:43:33.197Z,22.54
2023-05-08T18:46:00.671Z,22.47
2023-05-08T18:48:27.669Z,22.39
2023-05-08T18:50:58.229Z,22.31
2023-05-08T18:53:25.183Z,22.24
2023-05-08T18:55:52.874Z,22.17
2023-05-08T18:58:19.849Z,22.09
2023-05-08T19:00:46.790Z,22.03
2023-05-08T19:03:14.029Z,21.96
2023-05-08T19:05:41.842Z,21.90
2023-05-08T19:08:08.696Z,21.84
2023-05-08T19:10:35.503Z,21.78
2023-05-08T19:13:02.375Z,21.73
2023-05-08T19:15:29.300Z,21.70
2023-05-08T19:17:56.227Z,21.63
2023-05-08T19:20:23.135Z,21.58
2023-05-08T19:22:50.013Z,21.53
2023-05-08T19:25:16.895Z,21.49
2023-05-08T19:27:43.715Z,21.44
2023-05-08T19:30:11.153Z,21.39
2023-05-08T19:32:38.040Z,21.34
2023-05-08T19:35:06.485Z,21.28
2023-05-08T19:37:33.266Z,21.24
2023-05-08T19:40:00.190Z,21.17
2023-05-08T19:42:27.014Z,21.11
2023-05-08T19:44:53.786Z,21.05
2023-05-08T19:47:20.690Z,20.99
2023-05-08T19:49:47.508Z,20.93
2023-05-08T19:52:14.315Z,20.87
2023-05-08T19:54:41.234Z,20.80
2023-05-08T19:57:08.040Z,20.74
2023-05-08T19:59:34.870Z,20.68
2023-05-08T20:02:02.024Z,20.62
2023-05-08T20:04:29.164Z,20.58
2023-05-08T20:06:56.055Z,20.53
2023-05-08T20:09:23.873Z,20.49
2023-05-08T20:11:50.709Z,20.46
2023-05-08T20:14:17.506Z,20.42
2023-05-08T20:16:44.456Z,20.36
2023-05-08T20:19:11.393Z,20.30
2023-05-08T20:21:38.207Z,20.24
2023-05-08T20:24:05.705Z,20.18
2023-05-08T20:26:32.724Z,20.11
2023-05-08T20:29:00.979Z,20.05
2023-05-08T20:31:29.415Z,19.99
2023-05-08T20:33:56.827Z,19.94
2023-05-08T20:36:23.614Z,19.89
2023-05-08T20:38:51.144Z,19.83
2023-05-08T20:41:17.914Z,19.80
2023-05-08T20:43:45.214Z,19.76
2023-05-08T20:46:12.041Z,19.72
2023-05-08T20:48:38.860Z,19.68
2023-05-08T20:51:05.819Z,19.62
2023-05-08T20:53:32.721Z,19.58
2023-05-08T20:56:01.607Z,19.53
2023-05-08T20:58:28.435Z,19.49
2023-05-08T21:00:55.303Z,19.46
2023-05-08T21:03:22.413Z,19.40
2023-05-08T21:05:49.294Z,19.35
2023-05-08T21:08:16.163Z,19.32
2023-05-08T21:10:42.961Z,19.30
2023-05-08T21:13:09.850Z,19.28
2023-05-08T21:15:36.738Z,19.26
2023-05-08T21:18:03.694Z,19.24
2023-05-08T21:20:33.756Z,19.20
2023-05-08T21:23:00.567Z,19.20
2023-05-08T21:25:27.372Z,19.19
2023-05-08T21:27:55.381Z,19.18
2023-05-08T21:30:22.425Z,19.18
2023-05-08T21:32:49.295Z,19.17
2023-05-08T21:35:16.462Z,19.17
2023-05-08T21:37:43.476Z,19.16
2023-05-08T21:40:10.566Z,19.14
2023-05-08T21:42:38.660Z,19.11
2023-05-08T21:45:06.219Z,19.11
2023-05-08T21:47:33.066Z,19.11
2023-05-08T21:49:59.894Z,19.10
2023-05-08T21:52:26.786Z,19.11
2023-05-08T21:54:53.724Z,19.12
2023-05-08T21:57:20.510Z,19.13
2023-05-08T21:59:49.055Z,19.13
2023-05-08T22:02:16.434Z,19.13
2023-05-08T22:04:43.293Z,19.14
2023-05-08T22:07:10.099Z,19.15
2023-05-08T22:09:36.990Z,19.18
2023-05-08T22:12:04.002Z,19.18
2023-05-08T22:14:30.827Z,19.19
2023-05-08T22:16:57.646Z,19.20
2023-05-08T22:19:24.479Z,19.21
2023-05-08T22:21:51.416Z,19.20
2023-05-08T22:24:19.056Z,19.20
2023-05-08T22:26:46.032Z,19.21
2023-05-08T22:29:12.890Z,19.21
2023-05-08T22:31:39.712Z,19.23
2023-05-08T22:34:06.647Z,19.24
2023-05-08T22:36:33.445Z,19.25
2023-05-08T22:39:00.973Z,19.25
2023-05-08T22:41:30.427Z,19.24
2023-05-08T22:43:57.394Z,19.25
2023-05-08T22:46:24.608Z,19.26
2023-05-08T22:48:54.344Z,19.26
2023-05-08T22:51:21.166Z,19.25
2023-05-08T22:53:48.045Z,19.24
2023-05-08T22:56:14.854Z,19.24
2023-05-08T22:58:41.627Z,19.24
2023-05-08T23:01:08.537Z,19.23
2023-05-08T23:03:35.807Z,19.21
2023-05-08T23:06:02.735Z,19.19
2023-05-08T23:08:29.518Z,19.19
2023-05-08T23:10:56.309Z,19.16
2023-05-08T23:13:23.164Z,19.16
2023-05-08T23:15:49.955Z,19.13
2023-05-08T23:18:16.758Z,19.12
2023-05-08T23:20:43.531Z,19.10
2023-05-08T23:23:10.616Z,19.11
2023-05-08T23:25:37.633Z,19.10
2023-05-08T23:28:04.462Z,19.09
2023-05-08T23:30:31.231Z,19.07
2023-05-08T23:32:58.094Z,19.08
2023-05-08T23:35:25.021Z,19.08
2023-05-08T23:37:51.844Z,19.08
2023-05-08T23:40:18.617Z,19.07
2023-05-08T23:42:45.397Z,19.06
2023-05-08T23:45:12.558Z,19.06
2023-05-08T23:47:39.595Z,19.05
2023-05-08T23:50:07.014Z,19.05
2023-05-08T23:52:33.790Z,19.05
2023-05-08T23:55:00.655Z,19.06
2023-05-08T23:57:27.457Z,19.06
2023-05-08T23:59:54.314Z,19.07
